Time;durP1;ratioP1;P1;durP2;ratioP2;P2;SDS_P1;SDS_P2;PMS_P1;PMS_P2;Temp;Humidity;BMP_temperature;BMP_pressure;BME280_temperature;BME280_humidity;BME280_pressure;Samples;Min_cycle;Max_cycle;Signal;HPM_P1;HPM_P2
2022/03/17 00:09:49;;;;;;;8.40;7.60;;;;;;;18.39;41.79;98114.34;4973926;23;20263;-85
2022/03/17 00:12:15;;;;;;;7.47;6.87;;;;;;;18.54;41.68;98128.75;4899918;29;20320;-85
2022/03/17 00:14:42;;;;;;;7.57;6.87;;;;;;;18.65;41.73;98147.09;4892038;29;20345;-86
2022/03/17 00:17:26;;;;;;;7.20;6.60;;;;;;;18.59;41.81;98139.16;4913014;29;20239;-85
2022/03/17 00:19:53;;;;;;;7.90;7.20;;;;;;;18.37;41.83;98099.00;4913577;29;20730;-86
2022/03/17 00:22:20;;;;;;;8.07;7.37;;;;;;;18.26;41.87;98087.38;4913496;29;20219;-85
2022/03/17 00:24:47;;;;;;;7.83;7.13;;;;;;;18.18;41.65;98060.69;4913328;29;20727;-86
2022/03/17 00:27:13;;;;;;;7.57;6.87;;;;;;;18.36;42.11;98096.34;4913003;29;20212;-86
2022/03/17 00:29:40;;;;;;;6.97;6.37;;;;;;;18.81;41.86;98186.13;4913420;29;20213;-85
2022/03/17 00:32:07;;;;;;;7.60;7.00;;;;;;;18.66;41.95;98149.72;4897160;29;20638;-85
2022/03/17 00:35:35;;;;;;;7.07;6.47;;;;;;;18.10;41.83;98052.66;4898179;29;20773;-86
2022/03/17 00:37:23;;;;;;;7.13;6.53;;;;;;;18.49;41.84;98109.81;4902815;29;20593;-86
2022/03/17 00:39:51;;;;;;;7.10;6.50;;;;;;;18.72;41.77;98150.03;4913241;29;20299;-86
2022/03/17 00:42:18;;;;;;;7.70;7.00;;;;;;;18.64;42.13;98142.78;4896792;29;20440;-85
2022/03/17 00:44:46;;;;;;;7.20;6.60;;;;;;;18.77;41.96;98153.66;4913150;29;20794;-85
2022/03/17 00:47:13;;;;;;;7.63;7.00;;;;;;;18.52;41.93;98109.97;4910159;29;20241;-86
2022/03/17 00:49:40;;;;;;;7.47;6.77;;;;;;;18.59;42.09;98126.44;4897252;29;20633;-86
2022/03/17 00:52:10;;;;;;;7.50;6.80;;;;;;;18.76;41.77;98159.56;4916815;29;20311;-86
2022/03/17 00:54:39;;;;;;;7.70;7.00;;;;;;;18.74;41.69;98153.50;4916733;29;20228;-86
2022/03/17 00:57:07;;;;;;;6.97;6.37;;;;;;;18.58;41.63;98123.00;4916876;29;20742;-86
2022/03/17 00:59:33;;;;;;;8.17;7.47;;;;;;;18.47;41.62;98106.31;4885362;29;20257;-84
2022/03/17 01:02:00;;;;;;;8.70;7.90;;;;;;;18.43;42.02;98101.88;4916581;29;20220;-85
2022/03/17 01:04:27;;;;;;;8.17;7.37;;;;;;;18.54;42.09;98123.66;4897624;29;20231;-86
2022/03/17 01:06:53;;;;;;;8.23;7.53;;;;;;;18.44;42.09;98103.59;4895594;29;20229;-85
2022/03/17 01:09:20;;;;;;;8.13;7.43;;;;;;;18.58;41.95;98130.63;4900493;29;20295;-85
2022/03/17 01:11:47;;;;;;;8.43;7.73;;;;;;;18.46;41.99;98102.03;4900556;29;20240;-86
2022/03/17 01:14:13;;;;;;;7.77;7.07;;;;;;;18.53;41.82;98115.94;4932685;29;20311;-86
2022/03/17 02:14:23;;;;;;;9.83;8.93;;;;;;;9.67;41.43;96518.53;5541350;23;20701;-80
2022/03/17 02:17:10;;;;;;;9.10;8.30;;;;;;;13.03;41.46;97156.94;4915226;29;20230;-80
2022/03/17 02:20:06;;;;;;;9.00;8.20;;;;;;;18.58;41.63;98089.00;4877152;29;20244;-80
2022/03/17 02:30:11;;;;;;;9.23;8.33;;;;;;;10.54;40.99;96774.78;4837884;29;20215;-80
2022/03/17 02:32:48;;;;;;;9.23;8.43;;;;;;;13.94;41.56;97292.47;4854445;29;20279;-80
2022/03/17 02:35:32;;;;;;;9.13;8.27;;;;;;;16.93;41.90;97783.94;4811552;29;20227;-80
2022/03/17 02:38:11;;;;;;;8.63;7.83;;;;;;;11.68;41.61;96949.22;4826041;29;20212;-80
2022/03/17 02:41:09;;;;;;;8.50;7.70;;;;;;;10.86;41.45;96791.75;4823041;29;20244;-82
2022/03/17 02:43:58;;;;;;;9.13;8.33;;;;;;;9.87;41.53;96696.19;4840545;29;20239;-80
2022/03/17 02:46:44;;;;;;;8.97;8.17;;;;;;;8.87;41.62;96348.38;4826729;29;20215;-80
2022/03/17 02:50:00;;;;;;;8.17;7.47;;;;;;;14.58;42.00;97485.72;4829381;29;20693;-79
2022/03/17 02:53:05;;;;;;;8.37;7.67;;;;;;;9.92;41.55;96593.59;4843451;29;20586;-80
2022/03/17 02:55:53;;;;;;;8.80;8.00;;;;;;;10.88;41.10;96733.28;4854361;29;20291;-80
2022/03/17 02:58:58;;;;;;;8.57;7.87;;;;;;;10.38;41.51;96709.38;4819969;29;20220;-79
2022/03/17 03:02:23;;;;;;;9.10;8.30;;;;;;;18.91;41.53;98080.47;4831742;29;20255;-82
2022/03/17 03:05:13;;;;;;;9.00;8.20;;;;;;;14.54;41.23;97463.53;4888210;29;20598;-80
2022/03/17 03:07:57;;;;;;;9.13;8.33;;;;;;;8.28;41.69;96430.63;4895945;29;20202;-80
2022/03/17 03:10:49;;;;;;;8.83;8.03;;;;;;;16.43;41.66;97748.28;4884879;29;20210;-80
2022/03/17 03:13:50;;;;;;;8.57;7.77;;;;;;;7.29;41.61;96127.72;4908789;29;20221;-80
2022/03/17 03:17:03;;;;;;;9.43;8.60;;;;;;;16.86;41.37;97825.00;4897097;29;20204;-80
2022/03/17 03:20:31;;;;;;;8.90;8.10;;;;;;;10.60;41.61;96739.97;4892530;29;20308;-81
2022/03/17 03:23:06;;;;;;;8.77;7.97;;;;;;;7.59;41.58;96177.06;4887871;29;20288;-79
2022/03/17 03:26:10;;;;;;;8.83;8.03;;;;;;;10.59;41.71;96703.09;4882697;29;20239;-81
2022/03/17 03:28:55;;;;;;;8.73;7.93;;;;;;;8.82;41.72;96376.41;4909506;29;20256;-81
2022/03/17 03:31:30;;;;;;;8.53;7.83;;;;;;;9.80;41.50;96591.22;4881400;29;20213;-80
2022/03/17 03:34:29;;;;;;;8.37;7.67;;;;;;;10.20;41.50;96697.38;4886153;29;20240;-86
2022/03/17 03:40:11;;;;;;;8.53;7.83;;;;;;;11.51;41.17;96853.38;4918574;29;20228;-87
2022/03/17 03:54:21;;;;;;;8.73;7.93;;;;;;;8.52;41.43;96528.13;1158279;23;20684;-88
2022/03/17 04:01:10;;;;;;;8.57;7.77;;;;;;;16.87;41.60;97796.31;4874530;29;20233;-87
2022/03/17 04:07:44;;;;;;;8.63;7.87;;;;;;;10.71;41.65;96786.72;4806849;29;20209;-81
2022/03/17 04:10:47;;;;;;;9.10;8.23;;;;;;;15.66;41.66;97707.75;4802735;29;20286;-80
2022/03/17 04:14:17;;;;;;;8.63;7.83;;;;;;;10.12;41.74;96646.72;4803750;29;20361;-80
2022/03/17 04:17:09;;;;;;;7.80;7.10;;;;;;;16.82;41.81;97935.69;4748642;30;20223;-80
2022/03/17 04:20:10;;;;;;;8.87;8.07;;;;;;;9.94;41.51;96730.91;4767403;29;20280;-81
2022/03/17 04:22:46;;;;;;;8.33;7.63;;;;;;;13.72;40.51;97269.34;4802134;29;20236;-81
2022/03/17 04:25:42;;;;;;;9.33;8.53;;;;;;;10.69;41.42;96856.09;4816697;29;20314;-81
2022/03/17 04:28:46;;;;;;;9.27;8.30;;;;;;;8.75;41.80;96570.50;4820410;29;20219;-81
2022/03/17 04:31:29;;;;;;;9.33;8.43;;;;;;;15.47;41.52;97594.41;4869189;29;20237;-81
2022/03/17 04:34:15;;;;;;;8.73;7.93;;;;;;;13.21;41.80;97311.84;4871053;29;20638;-80
2022/03/17 04:36:53;;;;;;;8.90;8.10;;;;;;;12.68;41.07;97259.09;4831178;29;20303;-80
2022/03/17 04:39:45;;;;;;;8.27;7.57;;;;;;;11.20;41.39;97014.22;4858163;29;20226;-80
2022/03/17 04:42:36;;;;;;;8.10;7.40;;;;;;;16.65;41.55;97791.78;4852576;29;20720;-80
2022/03/17 04:45:28;;;;;;;8.70;7.90;;;;;;;7.75;41.22;96313.84;4915699;29;20228;-81
2022/03/17 04:48:13;;;;;;;9.20;8.40;;;;;;;11.18;41.39;96926.88;4919257;29;20216;-80
2022/03/17 04:51:16;;;;;;;8.47;7.67;;;;;;;13.51;41.70;97362.44;4879291;29;20677;-81
2022/03/17 04:54:33;;;;;;;8.20;7.50;;;;;;;16.49;41.37;97879.69;4816447;29;20226;-80
2022/03/17 04:57:33;;;;;;;8.83;8.03;;;;;;;11.48;41.19;96968.94;4885114;29;20212;-80
2022/03/17 05:00:29;;;;;;;8.67;7.93;;;;;;;13.35;41.49;97230.25;4932303;29;20232;-80
2022/03/17 05:03:44;;;;;;;8.40;7.70;;;;;;;12.53;41.65;97064.13;4897976;28;20209;-82
2022/03/17 05:06:24;;;;;;;8.43;7.73;;;;;;;9.09;41.58;96475.78;4929042;29;20240;-81
2022/03/17 05:09:24;;;;;;;8.10;7.40;;;;;;;17.32;41.62;97951.06;4887792;29;20221;-82
2022/03/17 05:12:09;;;;;;;9.00;8.20;;;;;;;13.17;41.14;97224.16;4888539;29;20216;-80
2022/03/17 05:15:18;;;;;;;8.57;7.77;;;;;;;9.65;41.17;96752.47;4900117;29;20668;-81
2022/03/17 05:18:53;;;;;;;8.60;7.80;;;;;;;11.16;41.23;96943.53;4892074;29;20209;-80
2022/03/17 05:21:38;;;;;;;9.10;8.23;;;;;;;9.25;41.38;96539.44;4915293;29;20228;-81
2022/03/17 05:24:52;;;;;;;8.03;7.30;;;;;;;9.60;41.17;96734.63;4899119;29;20233;-80
2022/03/17 05:28:14;;;;;;;8.33;7.53;;;;;;;14.25;41.43;97548.66;4895090;29;20201;-80
2022/03/17 05:31:13;;;;;;;8.37;7.57;;;;;;;8.79;41.50;96572.44;4895413;29;20234;-80
2022/03/17 05:34:03;;;;;;;8.23;7.50;;;;;;;12.76;41.33;97194.88;4902899;29;20401;-79
2022/03/17 05:37:14;;;;;;;9.10;8.30;;;;;;;9.90;41.41;96693.88;4888354;29;20210;-79
2022/03/17 05:40:25;;;;;;;8.23;7.53;;;;;;;18.93;41.63;98199.47;4882409;29;21077;-81
2022/03/17 05:43:17;;;;;;;9.17;7.87;;;;;;;8.80;41.56;96508.19;4909526;29;20213;-80
2022/03/17 05:45:57;;;;;;;9.23;8.33;;;;;;;12.20;41.60;97116.78;4922881;29;20213;-83
2022/03/17 05:48:32;;;;;;;9.97;7.63;;;;;;;13.09;41.41;97205.19;4901164;29;20210;-78
2022/03/17 05:51:19;;;;;;;11.40;7.80;;;;;;;16.42;41.67;97790.53;4923045;29;20219;-80
2022/03/17 05:53:58;;;;;;;8.80;7.90;;;;;;;13.10;41.47;97356.63;4900205;29;21094;-81
2022/03/17 05:56:53;;;;;;;8.73;7.53;;;;;;;10.99;41.38;97033.88;4895934;29;20220;-81
2022/03/17 06:00:13;;;;;;;9.17;8.27;;;;;;;10.57;41.96;96752.34;4907355;29;20645;-78
2022/03/17 06:02:58;;;;;;;9.73;7.83;;;;;;;13.08;41.88;97231.22;4882533;29;20205;-79
2022/03/17 06:05:38;;;;;;;9.57;7.60;;;;;;;7.70;41.49;96375.19;4882780;29;20236;-81
2022/03/17 06:08:18;;;;;;;9.37;8.43;;;;;;;18.12;41.87;98089.22;4888714;29;20209;-81
2022/03/17 06:10:44;;;;;;;8.40;7.60;;;;;;;13.73;42.02;97322.47;4945411;29;20228;-82
2022/03/17 06:13:11;;;;;;;9.93;8.40;;;;;;;15.90;42.14;97701.47;4920162;28;20303;-83
2022/03/17 06:15:38;;;;;;;8.90;8.03;;;;;;;18.88;42.13;98218.75;4904856;29;20647;-84
2022/03/17 06:18:05;;;;;;;10.17;8.30;;;;;;;18.87;42.17;98223.75;4928862;29;20263;-81
2022/03/17 06:20:34;;;;;;;12.33;9.17;;;;;;;12.95;42.05;97204.38;4917355;29;20363;-81
2022/03/17 06:23:02;;;;;;;10.20;8.13;;;;;;;18.29;41.84;98129.94;4903710;29;20259;-83
2022/03/17 06:25:30;;;;;;;11.97;8.33;;;;;;;18.08;42.00;98094.94;4934576;29;20240;-83
2022/03/17 06:28:03;;;;;;;9.43;7.73;;;;;;;17.54;42.23;98000.56;4918691;29;20208;-83
2022/03/17 06:30:31;;;;;;;11.00;8.17;;;;;;;18.17;42.20;98145.41;4888949;29;20304;-82
2022/03/17 06:33:01;;;;;;;9.10;8.20;;;;;;;18.48;42.02;98164.06;4900372;29;20217;-82
2022/03/17 06:35:28;;;;;;;8.37;7.60;;;;;;;16.34;42.18;97807.00;4900328;29;20644;-83
2022/03/17 06:37:56;;;;;;;9.37;8.40;;;;;;;18.82;41.94;98256.63;4902381;29;20702;-83
2022/03/17 06:40:23;;;;;;;9.27;8.37;;;;;;;18.46;42.27;98205.47;4901503;29;20267;-83
2022/03/17 06:42:50;;;;;;;10.63;7.67;;;;;;;18.46;42.16;98196.19;4934842;29;20278;-80
2022/03/17 06:45:17;;;;;;;8.93;8.03;;;;;;;17.70;42.08;98037.78;4895153;29;20232;-82
2022/03/17 06:47:43;;;;;;;10.53;7.97;;;;;;;18.48;42.08;98192.06;4918686;28;20683;-82
2022/03/17 06:50:11;;;;;;;8.37;7.57;;;;;;;17.93;42.51;98090.72;4897637;29;20233;-82
2022/03/17 06:52:37;;;;;;;9.07;8.00;;;;;;;17.73;42.35;98058.28;4880850;29;20202;-81
2022/03/17 06:55:04;;;;;;;9.53;8.60;;;;;;;18.19;42.35;98144.72;4895063;29;20743;-82
2022/03/17 06:57:31;;;;;;;9.50;8.27;;;;;;;17.11;42.57;97955.00;4920980;29;20240;-81
2022/03/17 06:59:58;;;;;;;8.27;7.47;;;;;;;18.25;42.50;98149.25;4895418;29;20840;-80
2022/03/17 07:02:24;;;;;;;8.67;7.80;;;;;;;17.77;42.35;98072.94;4915143;29;20727;-81
2022/03/17 07:04:51;;;;;;;9.03;8.13;;;;;;;17.69;42.77;98064.03;4873208;29;20239;-82
2022/03/17 07:07:17;;;;;;;11.77;10.17;;;;;;;17.91;42.13;98099.94;4933547;29;20225;-82
2022/03/17 07:09:44;;;;;;;14.90;12.97;;;;;;;18.44;41.88;98199.47;4874239;29;20304;-81
2022/03/17 07:12:11;;;;;;;16.20;14.50;;;;;;;17.82;41.96;98097.78;4921394;29;20305;-81
2022/03/17 07:14:39;;;;;;;14.83;13.30;;;;;;;16.87;42.01;97933.38;4903928;29;20220;-82
2022/03/17 07:17:05;;;;;;;15.93;12.73;;;;;;;17.20;42.31;97999.53;4912549;29;20243;-83
2022/03/17 07:19:32;;;;;;;13.83;12.47;;;;;;;16.69;42.30;97912.94;4901548;29;20709;-82
2022/03/17 07:21:59;;;;;;;14.20;12.80;;;;;;;15.04;42.18;97637.53;4903246;29;20235;-82
2022/03/17 07:24:26;;;;;;;14.40;12.90;;;;;;;16.14;42.32;97835.47;4915233;29;20229;-82
2022/03/17 07:26:52;;;;;;;14.07;12.33;;;;;;;17.59;42.12;98077.03;4911441;29;20236;-81
2022/03/17 07:29:19;;;;;;;13.53;12.13;;;;;;;17.58;42.31;98075.28;4912897;29;20294;-81
2022/03/17 07:31:46;;;;;;;14.27;12.80;;;;;;;16.08;42.01;97812.31;4931072;29;20284;-82
2022/03/17 07:34:12;;;;;;;14.17;12.77;;;;;;;18.27;42.29;98206.19;4903737;29;20221;-82
2022/03/17 07:36:40;;;;;;;13.50;12.17;;;;;;;17.43;42.17;98056.63;4909510;29;20702;-81
2022/03/17 07:39:06;;;;;;;13.67;12.27;;;;;;;18.23;41.73;98195.75;4902623;29;20292;-81
2022/03/17 07:41:33;;;;;;;13.03;11.73;;;;;;;18.42;42.45;98239.22;4894030;29;20256;-82
2022/03/17 07:44:00;;;;;;;13.03;11.70;;;;;;;13.61;42.24;97468.22;4906908;29;20769;-82
2022/03/17 07:46:27;;;;;;;15.40;12.40;;;;;;;18.08;42.06;98173.78;4882120;29;20267;-81
2022/03/17 07:48:54;;;;;;;12.70;11.40;;;;;;;18.72;42.43;98281.53;4902259;29;20587;-82
2022/03/17 07:51:20;;;;;;;13.13;11.70;;;;;;;18.36;42.38;98236.31;4907062;29;20228;-82
2022/03/17 07:53:47;;;;;;;12.80;11.43;;;;;;;17.75;42.22;98120.28;4890618;29;20256;-81
2022/03/17 07:56:14;;;;;;;12.43;11.03;;;;;;;18.18;42.31;98193.81;4891770;29;20248;-81
2022/03/17 07:58:41;;;;;;;12.30;10.40;;;;;;;17.65;42.44;98125.66;4903118;29;20203;-81
2022/03/17 08:01:08;;;;;;;10.73;9.63;;;;;;;16.85;42.22;97967.97;4894015;29;20244;-81
2022/03/17 08:03:35;;;;;;;13.20;11.93;;;;;;;17.54;42.39;98089.50;4911791;29;20231;-81
2022/03/17 08:06:01;;;;;;;12.43;11.23;;;;;;;18.65;42.28;98287.97;4896545;29;20216;-80
2022/03/17 08:08:28;;;;;;;12.53;11.07;;;;;;;18.15;42.32;98200.44;4912338;29;20224;-81
2022/03/17 08:10:57;;;;;;;11.50;10.40;;;;;;;17.85;42.02;98170.81;4908711;29;20228;-81
2022/03/17 08:15:57;;;;;;;11.73;10.53;;;;;;;18.37;42.15;98236.44;4906929;29;20294;-88
2022/03/17 08:18:24;;;;;;;11.00;9.80;;;;;;;18.54;42.21;98267.84;4855802;29;20224;-88
2022/03/17 08:20:50;;;;;;;14.80;10.43;;;;;;;18.11;42.58;98186.69;4873157;29;20257;-88
2022/03/17 08:23:21;;;;;;;12.43;9.80;;;;;;;18.56;42.54;98268.81;4878086;29;20320;-88
2022/03/17 08:25:49;;;;;;;12.23;10.90;;;;;;;18.59;42.50;98284.25;4877084;29;20256;-88
2022/03/17 08:28:17;;;;;;;9.77;8.87;;;;;;;18.31;41.98;98243.69;4854532;29;20651;-90
2022/03/17 08:30:47;;;;;;;11.67;10.57;;;;;;;18.34;42.06;98245.53;4851133;29;20426;-87
2022/03/17 08:33:14;;;;;;;10.93;9.63;;;;;;;18.38;42.22;98250.03;4861463;29;20206;-89
2022/03/17 08:35:41;;;;;;;10.93;9.83;;;;;;;18.48;42.23;98277.72;4851142;29;20264;-87
2022/03/17 08:38:08;;;;;;;11.13;10.07;;;;;;;18.14;42.17;98213.94;4858314;29;20301;-88
2022/03/17 08:40:38;;;;;;;11.13;10.03;;;;;;;18.51;41.91;98281.31;4887445;29;20336;-87
2022/03/17 08:43:08;;;;;;;10.70;9.70;;;;;;;18.34;42.33;98248.06;4863403;29;20206;-89
2022/03/17 08:51:07;;;;;;;11.10;10.00;;;;;;;18.49;42.04;98284.53;4879967;29;20233;-87
2022/03/17 08:53:34;;;;;;;11.10;10.00;;;;;;;18.45;42.07;98283.53;4860782;29;20268;-87
2022/03/17 08:56:01;;;;;;;10.63;9.63;;;;;;;18.37;42.50;98277.13;4870735;29;20301;-87
2022/03/17 08:58:28;;;;;;;10.60;9.50;;;;;;;18.31;42.03;98273.34;4887781;29;20335;-88
2022/03/17 09:00:54;;;;;;;10.67;9.57;;;;;;;18.45;42.51;98306.44;4877969;29;20279;-88
2022/03/17 09:03:21;;;;;;;9.80;8.87;;;;;;;18.10;42.25;98242.56;4850570;29;20255;-87
2022/03/17 09:05:48;;;;;;;10.90;9.90;;;;;;;18.43;42.36;98294.41;4871902;29;20722;-88
2022/03/17 09:08:14;;;;;;;10.80;9.80;;;;;;;18.38;42.47;98290.75;4853500;29;20761;-88
2022/03/17 09:10:41;;;;;;;10.30;9.20;;;;;;;18.33;42.51;98282.84;4856617;29;20240;-87
2022/03/17 09:13:09;;;;;;;10.67;9.60;;;;;;;18.46;42.15;98309.81;4864852;29;20873;-87
2022/03/17 09:15:40;;;;;;;11.77;9.63;;;;;;;18.32;42.34;98282.75;4855975;29;20248;-87
2022/03/17 09:18:08;;;;;;;10.03;9.13;;;;;;;18.38;42.34;98294.16;4890795;29;20209;-87
2022/03/17 09:20:35;;;;;;;10.87;9.77;;;;;;;18.47;42.34;98312.44;4868409;29;20241;-89
2022/03/17 09:23:02;;;;;;;9.37;8.47;;;;;;;18.31;42.43;98279.31;4866293;29;20293;-87
2022/03/17 09:25:30;;;;;;;9.97;9.03;;;;;;;18.35;42.60;98288.84;4877794;29;20265;-90
2022/03/17 09:27:57;;;;;;;10.80;9.60;;;;;;;18.33;42.43;98281.94;4850200;29;20703;-88
2022/03/17 09:30:23;;;;;;;10.57;9.43;;;;;;;18.39;42.46;98298.47;4856343;29;20660;-89
2022/03/17 09:32:54;;;;;;;10.60;9.50;;;;;;;18.56;42.09;98328.22;4863503;29;20254;-87
2022/03/17 09:35:21;;;;;;;9.30;8.40;;;;;;;18.37;42.33;98301.66;4865349;29;20747;-90
2022/03/17 09:37:48;;;;;;;10.43;9.33;;;;;;;18.62;42.15;98341.28;4863052;29;20261;-88
2022/03/17 09:40:15;;;;;;;10.10;9.10;;;;;;;18.04;42.39;98240.56;4860172;29;20237;-86
2022/03/17 09:42:41;;;;;;;10.40;9.40;;;;;;;18.40;42.38;98297.66;4861119;29;20314;-87
2022/03/17 09:45:09;;;;;;;9.97;8.97;;;;;;;18.51;42.09;98319.47;4862562;29;20681;-87
2022/03/17 09:47:37;;;;;;;9.60;8.70;;;;;;;18.44;42.33;98321.63;4869137;29;20247;-88
2022/03/17 09:50:04;;;;;;;9.80;8.90;;;;;;;18.64;42.40;98349.00;4862454;29;20214;-84
2022/03/17 09:52:32;;;;;;;9.53;8.60;;;;;;;18.27;41.75;98292.69;4892636;29;20321;-86
2022/03/17 09:54:59;;;;;;;13.63;9.57;;;;;;;18.45;42.25;98313.19;4899629;29;20316;-88
2022/03/17 09:57:26;;;;;;;9.33;8.43;;;;;;;18.47;42.84;98325.19;4874995;29;20241;-89
2022/03/17 09:59:58;;;;;;;9.83;8.57;;;;;;;18.36;42.52;98315.19;4869819;29;20233;-87
2022/03/17 10:02:25;;;;;;;10.03;9.03;;;;;;;18.55;42.75;98345.94;4864090;29;20303;-89
2022/03/17 10:04:52;;;;;;;10.10;9.00;;;;;;;18.37;42.67;98322.94;4860377;29;20696;-87
2022/03/17 10:07:21;;;;;;;9.83;8.93;;;;;;;18.27;43.07;98298.63;4875303;29;20202;-88
2022/03/17 10:09:49;;;;;;;9.97;8.97;;;;;;;18.35;42.77;98319.41;4869020;29;20261;-88
2022/03/17 10:12:21;;;;;;;11.03;8.90;;;;;;;18.19;42.28;98287.19;4864656;29;20230;-88
2022/03/17 10:14:52;;;;;;;9.07;8.17;;;;;;;18.14;42.73;98280.97;4865274;29;20265;-88
2022/03/17 10:17:34;;;;;;;9.13;8.23;;;;;;;18.64;42.55;98359.19;4879584;29;20206;-89
2022/03/17 10:20:25;;;;;;;9.63;8.23;;;;;;;18.14;42.40;98280.97;4882851;29;20205;-88
2022/03/17 10:22:51;;;;;;;10.27;8.77;;;;;;;18.65;42.59;98366.03;4859841;29;20225;-89
2022/03/17 10:25:19;;;;;;;12.17;8.53;;;;;;;18.13;42.59;98276.69;4889850;29;20235;-89
2022/03/17 10:27:46;;;;;;;9.13;8.23;;;;;;;17.98;42.24;98260.59;4864290;29;20237;-88
2022/03/17 10:30:13;;;;;;;9.20;8.23;;;;;;;17.83;42.40;98231.75;4865788;29;20207;-89
2022/03/17 10:32:40;;;;;;;8.73;7.93;;;;;;;18.64;42.40;98366.81;4883583;29;20205;-88
2022/03/17 10:35:08;;;;;;;8.97;8.00;;;;;;;18.18;42.34;98290.50;4884916;29;20320;-88
2022/03/17 10:37:36;;;;;;;9.00;8.17;;;;;;;18.40;42.42;98333.28;4867379;29;20226;-86
2022/03/17 10:40:08;;;;;;;8.77;7.97;;;;;;;18.46;42.75;98340.38;4868126;29;20202;-84
2022/03/17 10:42:35;;;;;;;7.63;6.93;;;;;;;18.41;42.97;98329.94;4864265;29;20265;-88
2022/03/17 10:45:05;;;;;;;7.87;7.13;;;;;;;18.03;42.52;98264.22;4875372;29;20708;-86
2022/03/17 11:09:01;;;;;;;7.53;6.83;;;;;;;18.50;42.94;98357.56;5439770;23;20618;-87
2022/03/17 11:11:30;;;;;;;8.33;7.53;;;;;;;18.32;42.64;98328.56;4914651;29;20225;-89
2022/03/17 11:13:57;;;;;;;8.10;7.40;;;;;;;18.52;42.51;98366.16;4900475;29;20644;-88
2022/03/17 11:16:43;;;;;;;7.97;7.23;;;;;;;18.35;42.62;98334.66;4914518;28;20287;-88
2022/03/17 11:19:12;;;;;;;7.60;6.90;;;;;;;18.51;42.58;98364.41;4907817;29;20292;-87
2022/03/17 11:21:39;;;;;;;7.43;6.83;;;;;;;18.36;42.80;98338.09;4899436;28;20227;-85
2022/03/17 11:24:06;;;;;;;7.93;7.13;;;;;;;18.55;42.69;98368.88;4919502;29;20616;-90
2022/03/17 11:26:37;;;;;;;7.80;6.93;;;;;;;17.81;42.67;98235.00;4917181;29;20286;-90
2022/03/17 11:29:04;;;;;;;7.60;6.80;;;;;;;18.62;42.65;98387.09;4916142;29;20349;-89
2022/03/17 11:31:56;;;;;;;7.77;6.97;;;;;;;18.63;42.46;98380.34;4934074;29;20609;-87
2022/03/17 11:34:37;;;;;;;8.07;6.97;;;;;;;18.64;42.77;98384.63;4930550;29;20236;-88
2022/03/17 11:37:16;;;;;;;7.40;6.70;;;;;;;18.64;42.66;98377.88;4925231;29;20253;-89
2022/03/17 11:39:53;;;;;;;7.53;6.83;;;;;;;18.57;42.63;98365.63;4933809;29;20822;-89
2022/03/17 11:42:56;;;;;;;7.33;6.63;;;;;;;18.64;42.54;98371.91;4908924;29;20240;-89
2022/03/17 11:45:28;;;;;;;7.50;6.60;;;;;;;18.65;42.77;98371.13;4919048;29;20248;-89
2022/03/17 11:47:56;;;;;;;7.00;6.30;;;;;;;18.65;42.27;98373.69;4934082;29;20196;-88
2022/03/17 11:50:27;;;;;;;7.47;6.77;;;;;;;18.24;42.69;98298.47;4915008;29;20201;-88
2022/03/17 11:53:01;;;;;;;7.10;6.40;;;;;;;18.41;42.49;98336.72;4921359;29;20304;-90
2022/03/17 11:55:41;;;;;;;7.10;6.50;;;;;;;18.43;42.47;98332.56;4911245;29;20228;-89
2022/03/17 11:58:39;;;;;;;6.83;6.23;;;;;;;18.56;42.45;98358.75;4904066;29;20303;-89
2022/03/17 12:01:14;;;;;;;6.93;6.30;;;;;;;18.42;42.33;98326.63;4912840;29;20255;-87
2022/03/17 12:03:42;;;;;;;7.07;5.87;;;;;;;18.64;42.79;98367.69;4901684;28;20306;-86
2022/03/17 12:06:10;;;;;;;6.73;6.13;;;;;;;18.27;42.77;98301.16;4926594;28;20761;-86
2022/03/17 12:08:41;;;;;;;6.87;6.17;;;;;;;17.57;42.67;98180.28;4959886;28;20247;-87
2022/03/17 12:11:08;;;;;;;8.10;6.53;;;;;;;18.65;42.98;98361.81;4936416;29;20275;-86
2022/03/17 12:13:36;;;;;;;7.37;6.13;;;;;;;18.35;42.61;98318.53;4933781;28;20212;-87
2022/03/17 12:16:11;;;;;;;7.57;6.77;;;;;;;18.58;43.12;98353.75;4918719;29;20204;-87
2022/03/17 12:19:03;;;;;;;8.27;6.60;;;;;;;18.65;42.89;98369.44;4900115;29;20581;-87
2022/03/17 12:21:58;;;;;;;7.40;6.60;;;;;;;18.66;42.70;98366.13;4914099;29;20643;-87
2022/03/17 12:24:45;;;;;;;7.33;6.60;;;;;;;18.66;43.15;98371.22;4936975;29;20316;-88
2022/03/17 12:27:22;;;;;;;7.10;6.13;;;;;;;18.66;43.31;98366.13;4941496;29;20205;-87
2022/03/17 12:29:55;;;;;;;8.07;6.90;;;;;;;18.67;42.99;98369.53;4930997;29;20678;-88
2022/03/17 12:32:22;;;;;;;7.60;6.73;;;;;;;18.49;43.04;98340.53;4928695;29;20211;-89
2022/03/17 12:34:50;;;;;;;7.30;6.60;;;;;;;18.21;42.95;98293.19;4910031;29;20220;-87
2022/03/17 12:37:18;;;;;;;8.43;6.53;;;;;;;18.14;43.14;98280.97;4909983;29;20243;-87
2022/03/17 12:39:52;;;;;;;7.67;6.80;;;;;;;18.57;43.20;98365.63;4912496;29;20223;-88
2022/03/17 12:42:29;;;;;;;7.67;6.83;;;;;;;18.41;43.00;98324.00;4904798;29;20307;-87
2022/03/17 12:45:04;;;;;;;6.80;6.10;;;;;;;18.38;42.87;98319.59;4890835;29;20706;-88
2022/03/17 12:47:32;;;;;;;8.20;7.00;;;;;;;18.45;43.15;98343.72;4901868;29;20232;-88
2022/03/17 12:49:59;;;;;;;6.67;6.07;;;;;;;18.43;43.24;98330.03;4920025;29;20228;-86
2022/03/17 12:52:28;;;;;;;7.10;6.43;;;;;;;18.53;42.95;98347.56;4919227;29;20262;-87
2022/03/17 12:54:55;;;;;;;6.83;6.13;;;;;;;18.44;43.18;98327.56;4919083;29;20232;-89
2022/03/17 12:57:24;;;;;;;7.93;7.10;;;;;;;18.58;43.19;98359.72;4902666;29;20852;-87
2022/03/17 12:59:50;;;;;;;7.77;6.77;;;;;;;18.26;43.01;98303.63;4920224;28;20260;-87
2022/03/17 13:02:18;;;;;;;7.53;6.70;;;;;;;18.52;43.13;98343.25;4923769;29;20311;-88
2022/03/17 13:04:50;;;;;;;6.90;6.17;;;;;;;18.17;43.37;98290.41;4900085;29;20631;-87
2022/03/17 13:07:17;;;;;;;7.83;6.57;;;;;;;18.64;42.90;98359.19;4904344;29;20651;-88
2022/03/17 13:09:45;;;;;;;8.00;6.23;;;;;;;18.45;43.29;98331.88;4899602;29;20295;-88
2022/03/17 13:15:03;;;;;;;7.77;6.23;;;;;;;17.97;43.11;98241.00;4948977;29;20307;-87
2022/03/17 13:17:37;;;;;;;6.67;5.97;;;;;;;18.48;43.12;98343.88;4934018;29;20228;-87
2022/03/17 13:20:08;;;;;;;8.10;6.00;;;;;;;18.45;43.07;98331.88;4915940;29;20251;-87
2022/03/17 13:22:39;;;;;;;6.60;5.90;;;;;;;18.54;43.09;98342.56;4894607;29;20228;-88
2022/03/17 13:25:11;;;;;;;7.10;6.20;;;;;;;18.57;43.46;98347.81;4916278;29;20235;-88
2022/03/17 13:27:42;;;;;;;6.83;6.10;;;;;;;18.49;43.24;98330.34;4903784;29;20291;-87
2022/03/17 13:30:14;;;;;;;8.13;6.07;;;;;;;18.48;43.31;98328.63;4903332;29;20208;-87
2022/03/17 13:32:43;;;;;;;7.33;6.10;;;;;;;18.59;42.98;98356.38;4917987;29;20675;-87
2022/03/17 13:35:12;;;;;;;7.00;6.40;;;;;;;18.71;43.15;98376.56;4903537;29;20216;-89
2022/03/17 13:37:46;;;;;;;6.70;6.00;;;;;;;18.54;43.23;98352.75;4912687;29;20303;-87
2022/03/17 13:40:19;;;;;;;7.30;6.60;;;;;;;17.96;43.29;98239.25;4897238;29;20290;-86
2022/03/17 13:43:05;;;;;;;9.13;7.73;;;;;;;18.58;42.96;98348.66;4911490;29;20304;-87
2022/03/17 13:45:33;;;;;;;9.83;7.70;;;;;;;18.31;42.78;98308.97;4917949;29;20312;-87
2022/03/17 13:48:01;;;;;;;12.87;8.40;;;;;;;18.57;43.03;98347.81;4898300;29;20328;-86
2022/03/17 13:50:28;;;;;;;9.20;8.17;;;;;;;18.47;42.96;98334.50;4918712;29;20239;-88
2022/03/17 13:53:14;;;;;;;10.90;8.50;;;;;;;18.56;43.16;98348.59;4912137;29;20699;-88
2022/03/17 13:55:44;;;;;;;10.27;8.33;;;;;;;18.39;42.97;98321.38;4911983;29;20709;-89
2022/03/17 13:58:24;;;;;;;9.37;8.17;;;;;;;18.56;43.13;98347.72;4921649;29;20229;-88
2022/03/17 14:00:52;;;;;;;9.83;8.50;;;;;;;18.63;43.55;98362.53;4924135;28;20315;-87
2022/03/17 14:03:31;;;;;;;10.00;8.97;;;;;;;18.43;43.27;98323.28;4922679;28;20219;-89
2022/03/17 14:05:59;;;;;;;9.60;8.27;;;;;;;18.49;43.58;98338.00;4912082;29;20295;-88
2022/03/17 14:08:26;;;;;;;9.27;7.87;;;;;;;18.74;43.47;98384.34;4902312;29;20287;-87
2022/03/17 14:10:52;;;;;;;11.60;8.47;;;;;;;18.05;43.59;98260.09;4900997;29;20204;-87
2022/03/17 14:13:22;;;;;;;11.13;8.93;;;;;;;18.47;43.97;98334.50;4912521;29;20687;-87
2022/03/17 14:15:49;;;;;;;10.33;8.63;;;;;;;16.75;43.67;98035.09;4924875;23;20717;-81
2022/03/17 14:18:16;;;;;;;11.10;8.60;;;;;;;18.20;43.58;98306.72;4920848;29;20231;-82
2022/03/17 14:20:46;;;;;;;10.37;8.83;;;;;;;18.15;43.64;98279.31;4905634;29;20220;-80